Baghdad, Iraq

3:00 AM AST on December 11, 2016 (GMT +0300)
Baghdad International Air | | Change Station

Elev 115 ft 33.26 °N, 44.23 °E | Updated 1 hour ago

Clear
Clear
34 °F
Feels Like 34 °F
N
2
Wind Variable Wind from West

Today
High -- | Low -- °F
--% Chance of Precip.
Yesterday
High -- | Low -- °F
Precip. -- in
Pressure 30.12 in
Visibility -9999.0 miles
Clouds
Dew Point 19 °F
Humidity 56%
Rainfall 0.00 in
Snow Depth Not available.
6:56 AM 4:56 PM
Waxing Gibbous, 87% visible
METAR ORBI 102300Z 27002KT CAVOK 01/M07 Q1020
Pressure 30.12 in
Visibility -9999.0 miles
Clouds
Dew Point 19 °F
Humidity 56%
Rainfall 0.00 in
Snow Depth Not available.
6:56 AM 4:56 PM
Waxing Gibbous, 87% visible
METAR ORBI 102300Z 27002KT CAVOK 01/M07 Q1020

10-Day Weather Forecast

No radar image for this location.
×

Almanac

Astronomy

Dec. 11, 2016 Rise Set
Actual Time
Civil Twilight
Nautical Twilight
Astronomical Twilight
Moon
Length of Visible Light
Length of Day
Tomorrow will be .
, % of the Moon is Illuminated

Today's Extremes

Country Highs Country Lows

Community

WunderPhotos

Upload Photos

1,956,677 photos uploaded!

WunderBlog® & News

Nearby

Air Quality

  Air Quality AQ Index Pollutant
Not available.

Snow Depth

Station Depth Elevation

Earthquake Activity

City Distance Mag. Time & Date
Minimum magnitude displayed is 2.5.

Coastal Water Temperatures

Place Temperature

Stations

Nearby Weather Stations

Station Location Temp. Windchill Dew Point Humidity Wind Precip. Elev Updated Type